Time;durP1;ratioP1;P1;durP2;ratioP2;P2;SDS_P1;SDS_P2;PMS_P1;PMS_P2;Temp;Humidity;BMP_temperature;BMP_pressure;BME280_temperature;BME280_humidity;BME280_pressure;Samples;Min_cycle;Max_cycle;Signal;HPM_P1;HPM_P2
2023/09/01 00:00:05;;;;;;;8.40;6.55;;;;;;;21.59;100.00;100801.56;5155871;27;20090;-75
2023/09/01 00:02:30;;;;;;;8.80;5.97;;;;;;;21.95;100.00;100827.84;5154929;27;20031;-78
2023/09/01 00:04:56;;;;;;;7.05;5.88;;;;;;;21.71;100.00;100768.94;5156230;27;20026;-78
2023/09/01 00:07:22;;;;;;;7.88;5.55;;;;;;;22.07;100.00;100808.97;5156400;27;20022;-78
2023/09/01 00:09:49;;;;;;;9.35;6.95;;;;;;;22.08;100.00;100794.25;5155635;27;20042;-79
2023/09/01 00:12:15;;;;;;;8.70;6.70;;;;;;;21.37;100.00;100752.84;5155763;27;20106;-77
2023/09/01 00:14:40;;;;;;;8.48;6.95;;;;;;;21.63;100.00;100753.06;5156049;27;20110;-73
2023/09/01 00:17:06;;;;;;;10.82;7.35;;;;;;;21.19;100.00;100755.72;5137600;27;20027;-78
2023/09/01 00:19:31;;;;;;;9.85;7.30;;;;;;;21.51;100.00;100768.38;5137212;27;20121;-79
2023/09/01 00:21:56;;;;;;;9.57;7.97;;;;;;;21.74;100.00;100786.88;5136613;27;20063;-81
2023/09/01 00:24:22;;;;;;;10.30;8.30;;;;;;;21.59;100.00;100739.44;5137300;27;20026;-80
2023/09/01 00:26:47;;;;;;;9.40;8.23;;;;;;;21.57;100.00;100749.91;5137431;27;20039;-80
2023/09/01 00:29:13;;;;;;;13.63;9.48;;;;;;;21.65;100.00;100744.25;5155741;27;20400;-79
2023/09/01 00:31:38;;;;;;;10.38;9.27;;;;;;;21.54;100.00;100742.34;5137799;27;20026;-79
2023/09/01 00:34:05;;;;;;;12.05;9.77;;;;;;;21.40;100.00;100750.09;5155635;27;20435;-78
2023/09/01 00:36:30;;;;;;;13.77;10.68;;;;;;;20.98;100.00;100635.41;5155352;27;20042;-79
2023/09/01 00:38:56;;;;;;;12.90;11.50;;;;;;;21.38;100.00;100704.53;5155218;27;20136;-79
2023/09/01 00:41:21;;;;;;;14.02;10.98;;;;;;;21.15;100.00;100705.09;5155384;27;20033;-76
2023/09/01 00:43:46;;;;;;;15.18;12.30;;;;;;;21.12;100.00;100664.72;5155188;27;20022;-76
2023/09/01 00:46:12;;;;;;;13.90;12.43;;;;;;;21.56;100.00;100711.16;5155084;27;20080;-77
2023/09/01 00:48:38;;;;;;;14.35;12.52;;;;;;;21.59;100.00;100731.69;5136905;27;20087;-78
2023/09/01 00:51:03;;;;;;;17.00;13.20;;;;;;;21.24;100.00;100727.81;5136321;27;20031;-77
2023/09/01 00:53:29;;;;;;;13.98;12.50;;;;;;;20.65;100.00;100672.69;5136868;27;20031;-78
2023/09/01 00:55:57;;;;;;;15.88;11.82;;;;;;;21.10;100.00;100699.34;5136683;27;20073;-77
2023/09/01 00:58:23;;;;;;;16.70;12.98;;;;;;;21.25;100.00;100711.38;5154973;27;20058;-75
2023/09/01 01:00:48;;;;;;;15.60;11.70;;;;;;;21.04;100.00;100663.50;5155103;27;20113;-76
2023/09/01 01:03:14;;;;;;;14.20;12.55;;;;;;;21.32;100.00;100738.53;5154798;27;20105;-74
2023/09/01 01:06:09;;;;;;;15.57;13.07;;;;;;;21.42;100.00;100778.47;5136136;27;20031;-77
2023/09/01 01:08:43;;;;;;;14.75;13.15;;;;;;;21.07;100.00;100771.97;5136964;27;20394;-78
2023/09/01 01:11:14;;;;;;;15.35;12.15;;;;;;;21.12;100.00;100457.81;5136796;27;20031;-80
2023/09/01 01:13:45;;;;;;;18.33;14.27;;;;;;;21.05;100.00;100528.13;5154917;27;20023;-79
2023/09/01 01:16:16;;;;;;;17.15;14.13;;;;;;;20.70;100.00;100432.88;5154383;27;20038;-79
2023/09/01 01:18:43;;;;;;;16.33;12.52;;;;;;;21.13;100.00;100712.09;5136720;27;20058;-77
2023/09/01 01:21:17;;;;;;;18.45;12.93;;;;;;;21.25;100.00;100725.13;5154984;27;20231;-77
2023/09/01 01:23:43;;;;;;;18.23;14.45;;;;;;;21.10;100.00;100751.91;5154787;27;20019;-77
2023/09/01 01:26:14;;;;;;;16.50;14.27;;;;;;;21.01;100.00;100761.94;5135974;27;20031;-78
2023/09/01 01:28:39;;;;;;;14.25;12.73;;;;;;;20.58;100.00;100386.31;5135633;27;20066;-77
2023/09/01 01:31:05;;;;;;;16.05;14.32;;;;;;;21.31;100.00;100485.94;5136226;27;20074;-77
2023/09/01 01:33:42;;;;;;;17.42;13.98;;;;;;;21.18;100.00;100485.88;5154044;27;20026;-76
2023/09/01 01:36:19;;;;;;;16.30;14.60;;;;;;;21.16;100.00;100479.97;5135631;27;20122;-76
2023/09/01 01:38:53;;;;;;;15.73;13.35;;;;;;;20.98;100.00;100411.28;5135843;27;20030;-77
2023/09/01 01:41:53;;;;;;;17.95;14.80;;;;;;;21.19;100.00;100476.34;5154163;27;20019;-77
2023/09/01 01:44:25;;;;;;;17.50;14.45;;;;;;;20.96;100.00;100464.00;5154594;27;20047;-76
2023/09/01 01:46:51;;;;;;;16.38;13.48;;;;;;;21.26;100.00;100441.41;5153829;27;20027;-79
2023/09/01 01:49:18;;;;;;;18.38;15.27;;;;;;;20.96;100.00;100451.06;5135623;27;20117;-71
2023/09/01 01:51:43;;;;;;;18.33;14.70;;;;;;;21.06;100.00;100422.00;5154218;27;20038;-78
2023/09/01 01:54:09;;;;;;;16.65;14.35;;;;;;;20.67;100.00;100328.84;5153895;27;20165;-78
2023/09/01 01:56:35;;;;;;;17.52;15.23;;;;;;;21.00;100.00;100365.47;5153924;27;20030;-78
2023/09/01 01:59:00;;;;;;;17.63;14.15;;;;;;;20.95;100.00;100375.28;5135461;27;20495;-77
2023/09/01 02:01:26;;;;;;;16.98;14.95;;;;;;;20.81;100.00;100358.97;5135226;27;20030;-78
2023/09/01 02:03:52;;;;;;;19.02;16.08;;;;;;;20.40;100.00;100295.25;5153766;27;20731;-77
2023/09/01 02:06:17;;;;;;;17.85;15.55;;;;;;;20.93;100.00;100330.59;5153796;27;20092;-80
2023/09/01 02:08:43;;;;;;;16.98;15.27;;;;;;;20.90;100.00;100342.91;5153784;27;20023;-79
2023/09/01 02:11:08;;;;;;;18.27;15.05;;;;;;;20.88;100.00;100317.13;5154323;27;20065;-80
2023/09/01 02:13:34;;;;;;;18.67;15.77;;;;;;;20.13;100.00;100234.16;5154293;27;20023;-79
2023/09/01 02:15:59;;;;;;;19.08;14.93;;;;;;;20.87;100.00;100335.31;5141305;27;20015;-76
2023/09/01 02:18:25;;;;;;;18.80;15.80;;;;;;;20.70;100.00;100319.16;5154690;27;20058;-79
2023/09/01 02:20:50;;;;;;;16.73;15.02;;;;;;;20.85;100.00;100330.25;5158353;27;20099;-77
2023/09/01 02:23:17;;;;;;;16.77;15.07;;;;;;;20.72;100.00;100319.88;5135471;27;20095;-80
2023/09/01 02:25:44;;;;;;;17.55;15.68;;;;;;;20.63;100.00;100306.72;5153284;27;20067;-79
2023/09/01 02:28:09;;;;;;;17.67;15.13;;;;;;;20.48;100.00;100256.03;5134737;27;20033;-79
2023/09/01 02:30:35;;;;;;;18.40;16.13;;;;;;;20.29;100.00;100237.44;5150876;27;20027;-77
2023/09/01 02:33:01;;;;;;;16.92;14.98;;;;;;;20.60;100.00;100310.31;5116083;28;20483;-77
2023/09/01 02:35:27;;;;;;;17.10;15.20;;;;;;;19.96;100.00;100219.75;5132441;28;20023;-80
2023/09/01 02:37:53;;;;;;;18.38;16.05;;;;;;;20.34;100.00;100279.34;5114746;28;20020;-79
2023/09/01 02:40:18;;;;;;;15.82;14.10;;;;;;;20.30;100.00;100221.84;5114719;28;20027;-78
2023/09/01 02:42:44;;;;;;;20.02;14.70;;;;;;;20.43;100.00;100248.56;5132561;28;20405;-80
2023/09/01 02:45:13;;;;;;;16.73;14.20;;;;;;;20.09;100.00;100225.78;5132666;28;20031;-80
2023/09/01 02:47:40;;;;;;;16.77;13.43;;;;;;;20.13;100.00;100236.72;5132204;28;20115;-74
2023/09/01 02:50:06;;;;;;;15.68;13.60;;;;;;;20.30;100.00;100237.34;5133001;28;20030;-77
2023/09/01 02:52:31;;;;;;;15.95;13.85;;;;;;;20.41;100.00;100237.50;5114710;28;20172;-77
2023/09/01 02:54:59;;;;;;;17.20;13.75;;;;;;;20.46;100.00;100230.28;5132428;28;20084;-78
2023/09/01 02:57:24;;;;;;;14.70;13.18;;;;;;;19.92;100.00;100170.97;5132749;28;20039;-74
2023/09/01 02:59:52;;;;;;;17.98;14.55;;;;;;;20.00;100.00;100208.28;5114725;28;20027;-76
2023/09/01 03:02:19;;;;;;;15.60;13.45;;;;;;;20.15;100.00;100186.66;5114299;28;20455;-77
2023/09/01 03:04:44;;;;;;;17.80;14.10;;;;;;;20.41;100.00;100240.09;5132259;28;20110;-76
2023/09/01 03:07:09;;;;;;;16.80;13.63;;;;;;;20.19;100.00;100166.66;5131785;28;20038;-77
2023/09/01 03:09:35;;;;;;;18.52;14.38;;;;;;;20.27;100.00;100229.81;5131996;28;20122;-77
2023/09/01 03:12:00;;;;;;;19.15;14.85;;;;;;;20.15;100.00;100219.38;5114375;28;20031;-77
2023/09/01 03:14:26;;;;;;;18.35;14.27;;;;;;;19.97;100.00;100187.81;5132364;28;20076;-79
2023/09/01 03:16:52;;;;;;;16.60;14.23;;;;;;;20.17;100.00;100226.13;5119119;28;20027;-78
2023/09/01 03:19:17;;;;;;;20.08;15.02;;;;;;;20.33;100.00;100226.00;5109750;28;20421;-77
2023/09/01 03:21:43;;;;;;;16.40;14.27;;;;;;;20.17;100.00;100233.03;5120391;27;20062;-78
2023/09/01 03:24:08;;;;;;;16.42;14.73;;;;;;;19.94;100.00;100211.25;5152664;27;20041;-77
2023/09/01 03:26:34;;;;;;;14.80;13.25;;;;;;;20.03;100.00;100218.41;5152782;27;20027;-75
2023/09/01 03:29:01;;;;;;;16.38;14.43;;;;;;;19.80;100.00;100190.66;5127649;27;20554;-77
2023/09/01 03:31:26;;;;;;;16.83;14.27;;;;;;;20.05;100.00;100211.41;5132699;27;20035;-78
2023/09/01 03:33:51;;;;;;;20.70;14.43;;;;;;;20.40;100.00;100212.59;5137268;27;20090;-78
2023/09/01 03:36:17;;;;;;;14.80;13.30;;;;;;;20.21;100.00;100237.09;5137326;27;20059;-77
2023/09/01 03:38:42;;;;;;;18.73;14.02;;;;;;;20.31;100.00;100220.94;5154967;27;20026;-78
2023/09/01 03:41:08;;;;;;;17.13;13.90;;;;;;;20.10;100.00;100247.25;5147765;27;20042;-75
2023/09/01 03:43:34;;;;;;;15.68;13.88;;;;;;;20.01;100.00;100233.16;5155666;27;20034;-78
2023/09/01 03:45:59;;;;;;;17.88;14.30;;;;;;;20.01;100.00;100228.00;5122699;27;20062;-79
2023/09/01 03:48:26;;;;;;;15.73;13.88;;;;;;;20.14;100.00;100248.72;5113517;28;20020;-77
2023/09/01 03:51:13;;;;;;;15.68;13.02;;;;;;;20.24;100.00;100255.00;5134543;27;20038;-80
2023/09/01 03:53:38;;;;;;;14.65;13.20;;;;;;;20.01;100.00;100248.66;5135438;27;20163;-78
2023/09/01 03:56:15;;;;;;;15.75;13.75;;;;;;;20.04;100.00;100256.22;5136499;27;20130;-79
2023/09/01 03:58:41;;;;;;;16.10;14.13;;;;;;;19.73;100.00;100199.69;5135135;27;20019;-79
2023/09/01 04:01:11;;;;;;;15.77;12.80;;;;;;;19.79;100.00;100197.56;5135235;27;20027;-74
2023/09/01 04:03:47;;;;;;;15.40;13.05;;;;;;;20.61;100.00;100280.16;5135018;27;20027;-77
2023/09/01 04:06:13;;;;;;;17.38;13.20;;;;;;;20.28;100.00;100252.13;5134968;27;20027;-75
2023/09/01 04:08:40;;;;;;;19.20;14.57;;;;;;;19.71;100.00;100178.28;5135272;27;20027;-79
2023/09/01 04:11:06;;;;;;;18.50;13.18;;;;;;;20.02;100.00;100283.91;5127237;27;20043;-78
2023/09/01 04:13:32;;;;;;;17.95;12.77;;;;;;;19.85;100.00;100241.03;5125863;27;20073;-77
2023/09/01 04:15:58;;;;;;;14.98;12.25;;;;;;;20.42;100.00;100301.16;5125464;27;20033;-78
2023/09/01 04:18:24;;;;;;;14.82;12.35;;;;;;;20.11;100.00;100306.56;5132614;27;20024;-77
2023/09/01 04:20:51;;;;;;;13.50;12.18;;;;;;;20.06;100.00;100244.06;5114059;28;20023;-76
2023/09/01 04:23:16;;;;;;;15.98;11.68;;;;;;;20.59;100.00;100292.34;5095973;28;20122;-76
2023/09/01 04:25:49;;;;;;;18.30;12.23;;;;;;;20.53;100.00;100319.41;5113415;28;20103;-73
2023/09/01 04:28:15;;;;;;;15.20;12.20;;;;;;;19.91;100.00;100257.09;5109018;28;20035;-74
2023/09/01 04:30:42;;;;;;;13.45;11.40;;;;;;;20.93;100.00;100351.28;5115657;27;20387;-75
2023/09/01 04:33:08;;;;;;;12.68;10.65;;;;;;;20.66;100.00;100351.28;5132964;27;20047;-76
2023/09/01 04:35:33;;;;;;;16.60;10.88;;;;;;;21.33;100.00;100363.28;5133400;27;20550;-70
2023/09/01 04:37:59;;;;;;;16.38;11.30;;;;;;;21.18;100.00;100390.16;5115158;27;20031;-74
2023/09/01 04:40:25;;;;;;;18.90;11.05;;;;;;;20.71;100.00;100349.25;5124747;27;20031;-72
2023/09/01 04:42:51;;;;;;;19.40;11.52;;;;;;;20.70;100.00;100368.25;5153817;27;20022;-77
2023/09/01 04:45:16;;;;;;;15.93;11.73;;;;;;;21.14;100.00;100406.81;5136152;27;20556;-76
2023/09/01 04:47:42;;;;;;;14.02;12.00;;;;;;;20.45;100.00;100360.38;5154389;27;20030;-76
2023/09/01 04:50:07;;;;;;;21.80;12.70;;;;;;;20.79;100.00;100418.53;5154929;27;20114;-75
2023/09/01 04:52:33;;;;;;;15.32;11.70;;;;;;;19.97;100.00;100316.06;5136303;27;20029;-76
2023/09/01 04:54:58;;;;;;;15.43;11.68;;;;;;;20.62;100.00;100408.41;5152766;27;20132;-74
2023/09/01 04:57:23;;;;;;;12.45;11.00;;;;;;;20.86;100.00;100409.47;5154619;27;20031;-77
2023/09/01 04:59:50;;;;;;;16.98;11.80;;;;;;;20.39;100.00;100371.09;5154482;27;20041;-76
2023/09/01 05:02:16;;;;;;;13.10;11.75;;;;;;;21.03;100.00;100427.38;5136161;27;20027;-76
2023/09/01 05:04:42;;;;;;;13.80;12.15;;;;;;;20.87;100.00;100438.72;5154737;27;20032;-77
2023/09/01 05:07:07;;;;;;;16.92;12.52;;;;;;;20.90;100.00;100446.31;5136140;27;20117;-76
2023/09/01 05:09:32;;;;;;;14.52;13.02;;;;;;;20.90;100.00;100451.50;5154141;27;20027;-74
2023/09/01 05:11:58;;;;;;;20.70;12.50;;;;;;;21.19;100.00;100442.72;5136545;27;20566;-76
2023/09/01 05:14:23;;;;;;;14.27;12.57;;;;;;;21.35;100.00;100469.28;5136392;27;20058;-75
2023/09/01 05:16:49;;;;;;;14.77;12.63;;;;;;;21.09;100.00;100459.75;5154517;27;20416;-76
2023/09/01 05:19:15;;;;;;;15.57;12.48;;;;;;;21.08;100.00;100425.31;5136122;27;20075;-76
2023/09/01 05:21:40;;;;;;;21.40;12.88;;;;;;;21.89;100.00;100490.75;5154770;27;20027;-76
2023/09/01 05:24:06;;;;;;;16.98;12.45;;;;;;;21.91;100.00;100440.50;5154437;27;20022;-75
2023/09/01 05:26:32;;;;;;;13.32;11.68;;;;;;;22.46;100.00;100517.09;5154153;27;20030;-75
2023/09/01 05:28:57;;;;;;;13.60;12.13;;;;;;;21.85;100.00;100482.34;5136035;27;20031;-75
2023/09/01 05:31:22;;;;;;;14.50;12.55;;;;;;;22.63;100.00;100496.88;5136432;27;20022;-75
2023/09/01 05:33:48;;;;;;;13.93;11.32;;;;;;;22.52;100.00;100465.66;5159123;27;20114;-76
2023/09/01 05:36:13;;;;;;;15.63;12.45;;;;;;;22.72;100.00;100536.91;5156547;27;20019;-75
2023/09/01 05:38:39;;;;;;;15.90;12.48;;;;;;;22.63;100.00;100491.69;5159625;27;20027;-77
2023/09/01 05:41:05;;;;;;;14.43;12.93;;;;;;;22.79;100.00;100551.09;5155223;27;20034;-78
2023/09/01 05:43:31;;;;;;;17.73;13.73;;;;;;;22.20;100.00;100501.56;5154370;27;20060;-77
2023/09/01 05:45:57;;;;;;;14.27;12.73;;;;;;;23.17;100.00;100559.63;5154248;27;20027;-77
2023/09/01 05:48:23;;;;;;;14.98;13.40;;;;;;;23.11;100.00;100493.44;5153956;27;20030;-77
2023/09/01 05:50:48;;;;;;;18.67;13.65;;;;;;;23.20;100.00;100445.22;5135566;27;20019;-77
2023/09/01 05:53:13;;;;;;;14.18;12.50;;;;;;;23.36;100.00;100483.91;5154056;27;20026;-76
2023/09/01 05:55:39;;;;;;;14.20;12.70;;;;;;;23.83;100.00;100518.44;5154495;27;20405;-79
2023/09/01 05:58:04;;;;;;;15.50;13.20;;;;;;;23.74;100.00;100529.50;5154328;27;20033;-79
2023/09/01 06:00:30;;;;;;;15.23;13.40;;;;;;;24.14;100.00;100535.19;5135922;27;20022;-80
2023/09/01 06:02:56;;;;;;;15.73;13.52;;;;;;;24.25;100.00;100547.38;5135751;27;20117;-77
2023/09/01 06:05:22;;;;;;;15.77;13.48;;;;;;;24.30;100.00;100621.50;5134962;27;20041;-78
2023/09/01 06:07:48;;;;;;;14.95;13.35;;;;;;;24.58;100.00;100651.47;5134968;27;20034;-76
2023/09/01 06:10:15;;;;;;;15.48;14.07;;;;;;;24.31;100.00;100638.75;5135057;27;20199;-77
2023/09/01 06:12:40;;;;;;;14.95;13.07;;;;;;;24.87;100.00;100642.31;5135444;27;20026;-77
2023/09/01 06:15:06;;;;;;;15.75;13.27;;;;;;;24.80;100.00;100615.09;5153971;27;20033;-77
2023/09/01 06:17:32;;;;;;;12.70;11.05;;;;;;;24.84;100.00;100603.50;5153890;27;20141;-76
2023/09/01 06:19:57;;;;;;;13.65;11.48;;;;;;;24.77;100.00;100545.91;5153705;27;20137;-76
2023/09/01 06:22:23;;;;;;;13.55;10.32;;;;;;;25.47;100.00;100598.47;5153595;27;20019;-76
2023/09/01 06:24:48;;;;;;;13.02;11.32;;;;;;;25.10;100.00;100539.84;5152857;27;20157;-76
2023/09/01 06:27:13;;;;;;;16.33;11.27;;;;;;;25.34;100.00;100537.88;5135196;27;20113;-77
2023/09/01 06:29:39;;;;;;;14.65;10.55;;;;;;;25.54;100.00;100593.63;5153352;27;20031;-77
2023/09/01 06:32:05;;;;;;;10.63;8.82;;;;;;;25.48;100.00;100547.22;5153908;27;20480;-76
2023/09/01 06:34:30;;;;;;;10.77;8.90;;;;;;;25.93;100.00;100579.16;5135039;27;20079;-77
2023/09/01 06:36:56;;;;;;;11.52;8.75;;;;;;;25.86;100.00;100562.34;5152758;27;20496;-76
2023/09/01 06:39:22;;;;;;;9.07;7.85;;;;;;;25.99;100.00;100586.47;5153131;27;20086;-76
2023/09/01 06:41:47;;;;;;;13.23;7.07;;;;;;;25.53;100.00;100637.06;5153411;27;20052;-77
2023/09/01 06:44:13;;;;;;;9.05;7.10;;;;;;;26.35;100.00;100605.13;5134929;27;20129;-78
2023/09/01 06:46:38;;;;;;;11.55;6.60;;;;;;;26.20;100.00;100629.06;5134655;27;20474;-77
2023/09/01 06:49:03;;;;;;;8.55;6.80;;;;;;;26.35;100.00;100614.72;5153500;27;20026;-77
2023/09/01 06:51:29;;;;;;;10.25;7.20;;;;;;;26.69;100.00;100584.84;5135014;27;20027;-77
2023/09/01 06:53:55;;;;;;;9.55;6.82;;;;;;;26.63;100.00;100646.22;5134330;27;20063;-77
2023/09/01 06:56:20;;;;;;;9.07;6.25;;;;;;;26.52;100.00;100726.38;5129982;27;20481;-77
2023/09/01 06:58:46;;;;;;;7.40;5.10;;;;;;;26.30;100.00;100742.09;5112276;28;20085;-78
2023/09/01 07:01:12;;;;;;;5.60;4.93;;;;;;;26.07;100.00;100750.97;5110969;28;20027;-77
2023/09/01 07:03:38;;;;;;;6.28;5.57;;;;;;;27.16;100.00;100944.66;5097917;28;20474;-78
2023/09/01 07:06:04;;;;;;;8.82;6.85;;;;;;;26.56;100.00;101284.41;5115902;28;20043;-77
2023/09/01 07:08:30;;;;;;;7.55;5.57;;;;;;;27.36;100.00;101669.53;5097767;28;20091;-76
2023/09/01 07:11:06;;;;;;;6.65;5.28;;;;;;;27.05;100.00;102310.00;5115971;28;20474;-77
2023/09/01 07:13:32;;;;;;;7.78;5.68;;;;;;;28.40;100.00;103769.78;5097655;28;20028;-75
2023/09/01 07:15:58;;;;;;;6.43;4.88;;;;;;;28.22;100.00;103951.22;5097432;28;20471;-78
2023/09/01 07:18:23;;;;;;;6.65;4.40;;;;;;;27.35;100.00;103999.75;5097485;28;20504;-79
2023/09/01 07:20:50;;;;;;;6.85;5.63;;;;;;;27.92;100.00;103968.06;5115778;28;20028;-77
2023/09/01 07:23:16;;;;;;;5.97;5.38;;;;;;;26.85;100.00;103860.28;5097300;28;20032;-76
2023/09/01 07:25:44;;;;;;;6.45;4.18;;;;;;;27.67;100.00;103703.84;5116101;28;20542;-75
2023/09/01 07:28:11;;;;;;;5.72;4.47;;;;;;;27.74;100.00;104353.41;5115737;28;20027;-76
2023/09/01 07:30:37;;;;;;;7.05;4.50;;;;;;;28.13;100.00;104104.28;5115575;28;20096;-77
2023/09/01 07:33:03;;;;;;;5.45;4.22;;;;;;;28.73;100.00;103411.09;5097035;28;20059;-75
2023/09/01 07:35:28;;;;;;;5.68;4.05;;;;;;;28.58;100.00;102971.75;5114700;28;20099;-76
2023/09/01 07:37:55;;;;;;;5.57;3.85;;;;;;;28.64;100.00;102726.00;5097373;28;20032;-78
2023/09/01 07:40:21;;;;;;;4.82;3.85;;;;;;;29.51;100.00;102453.94;5114314;28;20019;-77
2023/09/01 07:42:47;;;;;;;3.10;2.80;;;;;;;28.66;100.00;102239.50;5103704;27;20029;-76
2023/09/01 07:45:12;;;;;;;3.85;2.03;;;;;;;28.85;100.00;102060.94;5117404;27;20114;-78
2023/09/01 07:47:37;;;;;;;5.00;2.78;;;;;;;29.07;100.00;101909.94;5136028;27;20027;-77
2023/09/01 07:50:03;;;;;;;5.78;2.40;;;;;;;28.41;100.00;101764.72;5117061;27;20110;-77
2023/09/01 07:52:29;;;;;;;2.13;1.58;;;;;;;28.33;100.00;101631.81;5117319;27;20071;-77
2023/09/01 07:54:54;;;;;;;4.70;1.73;;;;;;;28.64;100.00;101596.31;5135532;27;20564;-78
2023/09/01 07:57:20;;;;;;;2.95;1.58;;;;;;;29.60;100.00;101545.72;5135434;27;20027;-78
2023/09/01 07:59:45;;;;;;;2.65;1.65;;;;;;;29.30;100.00;101438.97;5135226;27;20158;-76
2023/09/01 08:02:11;;;;;;;3.33;1.75;;;;;;;28.71;100.00;101351.31;5135267;27;20481;-77
2023/09/01 08:04:36;;;;;;;4.78;2.30;;;;;;;28.79;100.00;101246.75;5117239;27;20509;-77
2023/09/01 08:07:02;;;;;;;2.75;1.77;;;;;;;29.21;100.00;101231.84;5117013;27;20023;-76
2023/09/01 08:09:27;;;;;;;2.42;1.77;;;;;;;29.44;100.00;101171.22;5117017;27;20031;-76
2023/09/01 08:11:52;;;;;;;5.13;1.77;;;;;;;29.01;100.00;101066.66;5134850;27;20031;-76
2023/09/01 08:14:18;;;;;;;2.58;1.73;;;;;;;29.51;100.00;101080.59;5115196;27;20109;-76
2023/09/01 08:16:43;;;;;;;3.08;1.70;;;;;;;29.74;100.00;101049.69;5134908;27;20083;-74
2023/09/01 08:19:09;;;;;;;4.10;1.80;;;;;;;29.38;100.00;101018.88;5116943;27;20027;-74
2023/09/01 08:21:35;;;;;;;3.95;1.75;;;;;;;29.71;100.00;100995.69;5134690;27;20035;-76
2023/09/01 08:24:01;;;;;;;2.25;1.92;;;;;;;29.97;100.00;100989.88;5116486;27;20031;-75
2023/09/01 08:26:26;;;;;;;1.98;1.63;;;;;;;30.28;100.00;100989.50;5134471;27;20027;-76
2023/09/01 08:28:52;;;;;;;2.17;1.65;;;;;;;29.60;100.00;100892.72;5135218;27;20034;-75
2023/09/01 08:31:17;;;;;;;2.40;1.77;;;;;;;29.46;100.00;100963.94;5116698;27;20027;-75
2023/09/01 08:33:43;;;;;;;3.17;1.70;;;;;;;29.90;100.00;100958.13;5116557;27;20114;-76
2023/09/01 08:36:09;;;;;;;3.38;2.03;;;;;;;29.95;100.00;101027.56;5116176;27;20159;-76
2023/09/01 08:38:35;;;;;;;2.38;1.67;;;;;;;30.67;100.00;101034.78;5134636;27;20478;-76
2023/09/01 08:41:05;;;;;;;3.22;1.70;;;;;;;31.00;100.00;101033.41;5125895;27;20453;-74
2023/09/01 08:43:36;;;;;;;2.28;1.70;;;;;;;31.13;100.00;100997.06;5134445;27;20027;-73
2023/09/01 08:46:03;;;;;;;3.67;1.90;;;;;;;31.20;100.00;101024.41;5134494;27;20027;-74
2023/09/01 08:48:30;;;;;;;4.13;1.90;;;;;;;31.25;100.00;101015.09;5134087;27;20485;-75
2023/09/01 08:50:56;;;;;;;3.03;1.60;;;;;;;31.39;100.00;100987.47;5117867;27;20126;-74
2023/09/01 08:53:23;;;;;;;3.33;2.20;;;;;;;31.38;100.00;100991.06;5143872;27;20054;-73
2023/09/01 08:55:48;;;;;;;3.75;1.80;;;;;;;31.04;100.00;100934.88;5137721;27;20051;-73
2023/09/01 08:58:15;;;;;;;4.10;2.15;;;;;;;31.30;100.00;100962.03;5115619;27;20112;-74
2023/09/01 09:00:40;;;;;;;2.40;1.70;;;;;;;30.65;100.00;100971.91;5134001;27;20051;-74
2023/09/01 09:03:06;;;;;;;4.70;1.98;;;;;;;31.00;100.00;100902.00;5133987;27;20190;-74
2023/09/01 09:05:33;;;;;;;3.80;1.88;;;;;;;30.87;100.00;100927.81;5133988;27;20034;-74
2023/09/01 09:08:01;;;;;;;3.20;1.73;;;;;;;31.26;100.00;100953.63;5115493;27;20038;-74
2023/09/01 09:10:42;;;;;;;2.95;1.90;;;;;;;31.44;100.00;100948.38;5115650;27;20432;-74
2023/09/01 09:13:33;;;;;;;2.25;1.70;;;;;;;31.07;100.00;100961.69;5115377;27;20417;-74
2023/09/01 09:16:09;;;;;;;1.90;1.70;;;;;;;31.36;100.00;100956.16;5133936;27;20035;-76
2023/09/01 09:18:35;;;;;;;1.90;1.80;;;;;;;30.70;100.00;100901.34;5115235;27;20035;-76
2023/09/01 09:21:01;;;;;;;3.05;1.90;;;;;;;31.26;100.00;100947.53;5115343;27;20027;-75
2023/09/01 09:23:44;;;;;;;9.38;2.33;;;;;;;31.52;100.00;100886.16;5133437;27;20027;-77
2023/09/01 09:26:11;;;;;;;1.70;1.50;;;;;;;30.61;100.00;100922.44;5132537;27;20069;-76
2023/09/01 09:28:36;;;;;;;2.20;1.73;;;;;;;31.84;100.00;100874.97;5133276;27;20035;-75
2023/09/01 09:31:02;;;;;;;3.70;1.60;;;;;;;31.13;100.00;100945.31;5114752;27;20057;-77
2023/09/01 09:33:29;;;;;;;3.05;1.70;;;;;;;32.01;100.00;100929.34;5115329;27;20504;-76
2023/09/01 09:35:55;;;;;;;1.90;1.60;;;;;;;32.07;100.00;100926.09;5114852;27;20027;-77
2023/09/01 09:38:21;;;;;;;2.20;1.73;;;;;;;31.41;100.00;100932.91;5114923;27;20545;-76
2023/09/01 09:40:57;;;;;;;2.78;1.70;;;;;;;32.59;100.00;100911.00;5133318;27;20034;-76
2023/09/01 09:43:22;;;;;;;2.38;1.52;;;;;;;31.34;100.00;100918.69;5133358;27;20067;-76
2023/09/01 09:45:51;;;;;;;2.08;1.65;;;;;;;32.05;100.00;100885.13;5133569;27;20027;-78
2023/09/01 09:48:17;;;;;;;2.35;1.80;;;;;;;31.00;100.00;100896.75;5133189;27;20141;-75
2023/09/01 09:50:43;;;;;;;2.45;1.60;;;;;;;32.32;100.00;100843.59;5133130;27;20027;-75
2023/09/01 09:53:13;;;;;;;3.30;1.88;;;;;;;31.78;100.00;100845.81;5132363;27;20031;-75
2023/09/01 09:55:50;;;;;;;3.20;1.50;;;;;;;31.60;100.00;100857.25;5133142;27;20054;-75
2023/09/01 09:58:33;;;;;;;3.15;1.70;;;;;;;32.52;100.00;100846.78;5133506;27;20035;-75
2023/09/01 10:01:02;;;;;;;8.23;1.77;;;;;;;32.48;100.00;100844.63;5114695;27;20054;-75
2023/09/01 10:03:31;;;;;;;2.90;1.80;;;;;;;32.60;100.00;100899.50;5132805;27;20031;-75
2023/09/01 10:05:59;;;;;;;2.05;1.60;;;;;;;31.51;100.00;100876.63;5132406;27;20562;-74
2023/09/01 10:08:25;;;;;;;2.55;1.23;;;;;;;32.50;100.00;100895.34;5114472;27;20031;-75
2023/09/01 10:10:52;;;;;;;2.53;1.50;;;;;;;32.84;100.00;100880.25;5132460;27;20060;-75
2023/09/01 10:13:19;;;;;;;1.83;1.40;;;;;;;33.05;100.00;100872.69;5132333;27;20043;-75
2023/09/01 10:15:45;;;;;;;2.75;1.50;;;;;;;32.56;100.00;100881.53;5132161;27;20057;-76
2023/09/01 10:18:11;;;;;;;2.85;1.60;;;;;;;32.62;100.00;100867.69;5132500;27;20023;-75
2023/09/01 10:20:43;;;;;;;2.35;1.92;;;;;;;32.56;100.00;100890.25;5132471;27;20026;-75
2023/09/01 10:23:09;;;;;;;2.28;1.50;;;;;;;32.57;100.00;100876.09;5114362;28;20405;-75
2023/09/01 10:25:35;;;;;;;2.72;1.70;;;;;;;32.34;100.00;100835.50;5114648;27;20027;-76
2023/09/01 10:28:10;;;;;;;2.00;1.75;;;;;;;32.40;100.00;100800.63;5114122;28;20038;-76
2023/09/01 10:30:38;;;;;;;2.95;1.90;;;;;;;32.23;100.00;100828.72;5132744;28;20122;-75
2023/09/01 10:33:07;;;;;;;4.03;1.88;;;;;;;32.80;100.00;100874.47;5132403;28;20027;-75
2023/09/01 10:35:57;;;;;;;1.70;1.38;;;;;;;32.07;100.00;100872.63;5132814;28;20031;-76
2023/09/01 10:38:32;;;;;;;1.90;1.50;;;;;;;31.67;100.00;100833.78;5135997;27;20023;-75
2023/09/01 10:40:58;;;;;;;3.55;1.40;;;;;;;32.57;100.00;100810.22;5118518;27;20027;-75
2023/09/01 10:43:35;;;;;;;2.30;1.40;;;;;;;33.23;100.00;100834.59;5136726;27;20173;-75
2023/09/01 10:46:14;;;;;;;2.05;1.38;;;;;;;32.37;100.00;100809.66;5137065;27;20030;-75
2023/09/01 10:48:59;;;;;;;2.20;1.60;;;;;;;33.50;100.00;100803.53;5136983;27;20256;-75
2023/09/01 10:51:30;;;;;;;1.50;1.40;;;;;;;31.72;100.00;100807.81;5136912;27;20069;-74
2023/09/01 10:53:57;;;;;;;1.67;1.45;;;;;;;32.63;100.00;100871.97;5136888;27;20181;-75
2023/09/01 10:56:23;;;;;;;4.43;1.67;;;;;;;31.93;100.00;100839.03;5118314;27;20139;-75
2023/09/01 10:58:54;;;;;;;7.13;1.85;;;;;;;31.83;100.00;100860.19;5136546;27;20027;-75
2023/09/01 11:01:34;;;;;;;2.25;1.30;;;;;;;33.07;100.00;100862.78;5117981;27;20039;-76
2023/09/01 11:04:21;;;;;;;1.95;1.40;;;;;;;33.37;100.00;100846.28;5118025;27;20541;-75
2023/09/01 11:06:59;;;;;;;1.60;1.50;;;;;;;33.02;100.00;100865.91;5136474;27;20489;-76
2023/09/01 11:09:34;;;;;;;1.88;1.52;;;;;;;33.28;100.00;100814.81;5136566;27;20035;-74